Garden Prairie, Illinois
Current Conditions -  °F | °C
As of 5:54 PM on Thursday 18 Dec 2014 (Local Time) from KRFD Reporting Station
Overcast Overcast  
Wind Chill: 26°   Ceiling: 2000
Heat Index: 26°   Visibility: 10mi
Dew Point: 17°   Wind: 3mph
Humidity: 69%   Direction: 300°WNW
Pressure: 30.27"   Gusts: NA
Location:  42.25°N, 88.72°W
Report Text: KRFD 182354Z 30003KT 10SM OVC020 M03/M08 A3027 RMK AO2 SLP264 T10331083 11022 21033 51007
Loading
Personal Weather Stations






























Interactive Weather Map New forecast layout! Learn more

10-Day Weather Forecast

Advertisements
Track Severe Weather on mobile